Skip to main content

NOAA/GLERL Met Station at Muskegon Pier Light, MI

Previous 3 Hours (2 minute increments)
See also Previous 5 Days (top of hour)
Jump down to Data
Switch to [English][Metric]
Zoom: Click and drag, Pan: shift-click and drag, Unzoom: double-click, Unzoom All





See also 1-day windrose plot


NOAA/GLERL Met Station at Muskegon Pier Light, MI

Previous 3 Hours (2 minute increments)
See also Previous 5 Days (top of hour only)
Jump up to Graphs
Switch to [English][Metric]
                  Wind  Wind  Wind   Air   Dew   Rel     Sta
                   Spd   Gst   Dir  Temp    Pt   Hum    Pres
YYYY-MM-DD   EDT   m/s   m/s   deg     C     C     %      mb
2024-06-21 20:30   1.0   1.2   326  22.3  21.6  95.7  995.60
2024-06-21 20:28   1.0   1.1   324  22.3  21.7  96.1  995.60
2024-06-21 20:26   1.0   1.2   319  22.3  21.7  96.4  995.70
2024-06-21 20:24   1.2   1.4   315  22.3  21.7  96.2  995.70
2024-06-21 20:22   1.2   1.4   308  22.2  21.6  96.2  995.80
2024-06-21 20:20   1.6   1.9   311  22.3  21.8  96.9  995.80
2024-06-21 20:18   2.0   2.4   314  22.2  21.6  96.5  995.80
2024-06-21 20:16   2.7   2.8   312  22.3  21.8  96.4  995.80
2024-06-21 20:14   2.6   2.8   308  22.4  21.7  95.5  995.90
2024-06-21 20:12   2.3   2.6   305  22.5  21.6  94.0  995.80
2024-06-21 20:10   1.9   2.1   306  22.6  21.6  94.0  995.80
2024-06-21 20:08   2.0   2.2   310  22.7  21.6  93.2  995.80
2024-06-21 20:06   1.9   2.0   314  22.7  21.5  92.6  995.80
2024-06-21 20:04   1.9   2.1   310  22.8  21.7  93.0  995.80
2024-06-21 20:02   1.8   2.0   305  23.0  21.6  91.7  995.90
2024-06-21 20:00   1.9   2.1   306  23.1  21.1  88.6  995.90
2024-06-21 19:58   2.2   2.3   307  23.3  21.1  87.6  996.00
2024-06-21 19:56   2.0   2.2   309  23.4  20.6  84.3  996.00
2024-06-21 19:54   1.8   2.0   305  23.5  20.5  83.4  995.90
2024-06-21 19:52   1.8   1.9   301  23.6  20.6  83.6  995.80
2024-06-21 19:50   1.7   1.9   297  23.7  20.8  83.7  995.80
2024-06-21 19:48   1.3   1.5   297  23.6  20.4  82.4  995.80
2024-06-21 19:46   1.4   1.5   300  23.6  20.8  84.1  995.80
2024-06-21 19:44   1.3   1.6   309  23.6  20.7  83.8  995.80
2024-06-21 19:42   1.1   1.5   315  23.5  20.7  83.9  995.80
2024-06-21 19:40   1.3   1.8   311  23.5  20.7  84.4  995.80
2024-06-21 19:38   0.7   1.1   327  23.3  20.6  84.9  995.80
2024-06-21 19:36   0.5   0.6   351  23.1  20.6  85.4  995.80
2024-06-21 19:34   0.5   0.6     3  23.0  20.4  85.2  995.70
2024-06-21 19:32   0.5   0.8    30  22.9  20.4  85.6  995.80
2024-06-21 19:30   0.7   1.1    51  22.7  20.4  87.1  995.70
2024-06-21 19:28   1.0   1.4    42  22.6  20.4  87.7  995.70
2024-06-21 19:26   1.1   1.5    28  22.4  20.5  88.7  995.70
2024-06-21 19:24   1.4   1.8     5  22.2  20.5  89.9  995.70
2024-06-21 19:22   1.3   1.5   354  22.0  20.8  93.0  995.70
2024-06-21 19:20   1.6   2.0   347  21.7  21.1  95.9  995.70
2024-06-21 19:18   2.6   3.5   339  21.4  21.1  97.8  995.70
2024-06-21 19:16   4.1   4.8   332  21.2  21.1  99.3  995.70
2024-06-21 19:14   4.9   5.7   320  21.1  21.0  99.5  995.70
2024-06-21 19:12   5.8   6.1   325  21.1  21.0  99.5  995.70
2024-06-21 19:10   6.0   6.4   323  21.0  20.9  99.0  995.70
2024-06-21 19:08   5.7   6.4   322  21.0  20.8  98.8  995.70
2024-06-21 19:06   5.9   6.3   322  21.0  20.9  99.0  995.80
2024-06-21 19:04   6.5   7.1   320  21.1  20.9  98.7  995.70
2024-06-21 19:02   5.8   6.5   319  21.1  20.8  98.0  995.80
2024-06-21 19:00   5.0   5.7   317  21.2  20.8  97.3  995.80
2024-06-21 18:58   4.2   4.9   317  21.4  20.8  96.4  995.90
2024-06-21 18:56   3.6   4.2   316  21.6  20.8  95.2  995.80
2024-06-21 18:54   3.1   3.5   313  21.6  20.7  94.2  995.80
2024-06-21 18:52   3.0   3.2   310  21.7  20.6  93.8  995.90
2024-06-21 18:50   3.0   3.4   312  21.7  20.7  94.0  995.90
2024-06-21 18:48   3.1   3.4   314  21.7  20.6  93.4  996.00
2024-06-21 18:46   3.0   3.3   313  21.8  20.6  93.1  996.10
2024-06-21 18:44   3.0   3.3   313  21.7  20.5  92.9  996.10
2024-06-21 18:42   3.1   3.4   311  21.8  20.6  93.2  996.10
2024-06-21 18:40   3.3   4.0   307  21.6  20.8  94.8  996.20
2024-06-21 18:38   3.9   4.3   314  21.5  20.6  94.7  996.20
2024-06-21 18:36   4.2   4.6   312  21.6  20.6  94.2  996.20
2024-06-21 18:34   4.3   4.5   309  21.6  20.6  93.9  996.20
2024-06-21 18:32   4.0   4.3   307  21.6  20.6  93.6  996.20
2024-06-21 18:30   3.8   4.1   309  21.6  20.5  93.7  996.20
2024-06-21 18:28   4.2   4.5   305  21.5  20.6  94.2  996.20
2024-06-21 18:26   4.8   5.2   308  21.5  20.6  94.4  996.20
2024-06-21 18:24   5.1   5.4   310  21.5  20.5  94.2  996.20
2024-06-21 18:22   5.0   5.4   310  21.5  20.6  94.3  996.20
2024-06-21 18:20   5.0   5.7   312  21.6  20.7  94.2  996.20
2024-06-21 18:18   4.2   4.6   306  21.6  20.7  94.5  996.30
2024-06-21 18:16   4.6   4.7   311  21.6  20.5  93.4  996.20
2024-06-21 18:14   4.3   4.6   309  21.6  20.6  93.5  996.20
2024-06-21 18:12   4.3   4.8   312  21.7  20.5  93.1  996.20
2024-06-21 18:10   4.4   4.8   310  21.8  20.6  92.4  996.30
2024-06-21 18:08   4.0   4.2   310  22.0  20.6  91.5  996.40
2024-06-21 18:06   3.1   3.6   301  22.1  20.6  90.9  996.40
2024-06-21 18:04   2.9   3.1   300  22.2  20.5  89.9  996.40
2024-06-21 18:02   2.2   2.8   298  22.2  20.6  90.2  996.20
2024-06-21 18:00   1.6   1.9   298  22.0  20.5  90.9  996.20
2024-06-21 17:58   2.1   2.6   297  21.9  20.4  91.5  996.40
2024-06-21 17:56   2.2   2.4   292  21.6  20.6  93.6  996.40
2024-06-21 17:54   1.4   2.0   278  21.3  20.6  95.2  996.40
2024-06-21 17:52   1.5   1.7   271  21.3  20.4  94.6  996.30
2024-06-21 17:50   1.7   1.9   281  21.1  20.6  96.3  996.40
2024-06-21 17:48   1.7   1.9   270  21.0  20.5  96.7  996.50
2024-06-21 17:46   1.7   2.1   270  21.1  20.4  95.3  996.50
2024-06-21 17:44   2.2   2.7   278  21.1  20.6  96.8  996.70
2024-06-21 17:42   2.4   2.6   273  20.8  20.5  97.6  996.70
2024-06-21 17:40   2.2   2.4   269  21.0  20.4  96.2  996.70
2024-06-21 17:38   2.4   2.8   276  21.2  20.4  95.2  996.70
2024-06-21 17:36   2.5   2.9   282  20.9  20.4  96.8  996.70
2024-06-21 17:34   1.6   2.1   267  20.8  20.4  97.5  996.70
2024-06-21 17:32   1.5   1.9   262  20.6  20.4  99.2  996.70
2024-06-21 17:30   1.1   1.5   247  20.3  20.3 100.0  996.70